createdAt,value
2018-10-11T00:01:19.995Z,35.87
2018-10-11T00:03:48.343Z,34.97
2018-10-11T00:06:16.716Z,36.90
2018-10-11T00:08:45.039Z,37.43
2018-10-11T00:11:13.363Z,37.97
2018-10-11T00:13:41.669Z,33.63
2018-10-11T00:16:10.168Z,37.37
2018-10-11T00:18:38.475Z,32.37
2018-10-11T00:21:06.877Z,40.00
2018-10-11T00:23:35.234Z,37.73
2018-10-11T00:26:03.559Z,35.67
2018-10-11T00:28:31.941Z,38.27
2018-10-11T00:31:00.267Z,38.30
2018-10-11T00:33:28.559Z,39.27
2018-10-11T00:35:57.715Z,38.67
2018-10-11T00:38:26.171Z,37.10
2018-10-11T00:40:54.479Z,43.73
2018-10-11T00:43:22.779Z,42.53
2018-10-11T00:45:51.095Z,38.73
2018-10-11T00:48:19.487Z,42.00
2018-10-11T00:50:47.840Z,45.57
2018-10-11T00:53:16.203Z,41.90
2018-10-11T00:55:44.519Z,43.17
2018-10-11T00:58:12.867Z,41.00
2018-10-11T01:00:41.227Z,41.80
2018-10-11T01:03:09.855Z,40.83
2018-10-11T01:05:38.205Z,37.40
2018-10-11T01:08:06.540Z,42.80
2018-10-11T01:10:34.843Z,43.10
2018-10-11T01:13:03.119Z,45.87
2018-10-11T01:15:31.424Z,42.20
2018-10-11T01:17:59.724Z,41.73
2018-10-11T01:20:28.053Z,42.73
2018-10-11T01:22:56.528Z,46.17
2018-10-11T01:25:24.851Z,43.50
2018-10-11T01:27:53.207Z,42.27
2018-10-11T01:30:21.572Z,42.93
2018-10-11T01:32:49.908Z,42.87
2018-10-11T01:35:18.224Z,44.70
2018-10-11T01:37:46.547Z,40.00
2018-10-11T01:40:14.911Z,43.60
2018-10-11T01:42:43.387Z,44.67
2018-10-11T01:45:11.794Z,49.20
2018-10-11T01:47:40.137Z,42.93
2018-10-11T01:50:08.524Z,42.23
2018-10-11T01:52:36.918Z,48.70
2018-10-11T01:55:05.234Z,46.33
2018-10-11T01:57:33.607Z,41.43
2018-10-11T02:00:01.929Z,42.37
2018-10-11T02:02:30.239Z,43.43
2018-10-11T02:04:58.539Z,44.27
2018-10-11T02:07:26.900Z,43.13
2018-10-11T02:09:55.294Z,47.43
2018-10-11T02:12:23.618Z,41.70
2018-10-11T02:14:51.907Z,46.37
2018-10-11T02:17:20.223Z,45.70
2018-10-11T02:19:48.552Z,42.47
2018-10-11T02:22:16.907Z,41.37
2018-10-11T02:24:45.245Z,44.00
2018-10-11T02:27:13.574Z,42.60
2018-10-11T02:29:41.901Z,44.03
2018-10-11T02:32:10.322Z,42.53
2018-10-11T02:34:38.687Z,43.97
2018-10-11T02:37:07.111Z,42.50
2018-10-11T02:39:35.444Z,39.97
2018-10-11T02:42:03.760Z,41.67
2018-10-11T02:44:32.147Z,46.47
2018-10-11T02:47:00.503Z,43.53
2018-10-11T02:49:28.820Z,37.13
2018-10-11T02:51:57.800Z,41.27
2018-10-11T02:54:26.360Z,42.33
2018-10-11T02:56:59.324Z,41.07
2018-10-11T02:59:32.168Z,40.90
2018-10-11T03:02:02.839Z,41.30
2018-10-11T03:04:32.115Z,41.70
2018-10-11T03:07:00.572Z,44.97
2018-10-11T03:09:28.975Z,43.93
2018-10-11T03:11:57.399Z,39.73
2018-10-11T03:14:26.216Z,43.07
2018-10-11T03:16:54.572Z,40.93
2018-10-11T03:19:22.896Z,41.93
2018-10-11T03:21:51.223Z,38.87
2018-10-11T03:24:19.599Z,42.23
2018-10-11T03:26:47.880Z,41.53
2018-10-11T03:29:16.237Z,38.40
2018-10-11T03:31:44.584Z,45.83
2018-10-11T03:34:12.938Z,41.63
2018-10-11T03:36:41.292Z,44.00
2018-10-11T03:39:09.607Z,41.77
2018-10-11T03:41:37.923Z,46.03
2018-10-11T03:44:06.248Z,45.53
2018-10-11T03:46:34.590Z,47.73
2018-10-11T03:49:02.979Z,46.63
2018-10-11T03:51:31.296Z,43.17
2018-10-11T03:53:59.640Z,44.83
2018-10-11T03:56:27.939Z,45.53
2018-10-11T03:58:56.332Z,42.07
2018-10-11T04:01:24.808Z,45.93
2018-10-11T04:03:53.190Z,45.83
2018-10-11T04:06:21.535Z,42.67
2018-10-11T04:08:49.847Z,49.83
2018-10-11T04:11:18.219Z,42.03
2018-10-11T04:13:46.572Z,44.67
2018-10-11T04:16:14.896Z,46.40
2018-10-11T04:18:43.200Z,46.43
2018-10-11T04:21:11.744Z,44.43
2018-10-11T04:23:40.212Z,43.67
2018-10-11T04:26:08.500Z,50.00
2018-10-11T04:28:36.854Z,48.80
2018-10-11T04:31:05.263Z,49.17
2018-10-11T04:33:33.583Z,47.27
2018-10-11T04:36:02.057Z,45.43
2018-10-11T04:38:30.361Z,49.77
2018-10-11T04:40:59.042Z,43.53
2018-10-11T04:43:27.367Z,50.13
2018-10-11T04:45:55.698Z,49.40
2018-10-11T04:48:24.083Z,52.70
2018-10-11T04:50:52.442Z,46.03
2018-10-11T04:53:20.786Z,50.33
2018-10-11T04:55:49.152Z,42.10
2018-10-11T04:58:17.507Z,49.67
2018-10-11T05:00:45.871Z,49.30
2018-10-11T05:03:14.258Z,50.90
2018-10-11T05:05:43.400Z,44.23
2018-10-11T05:08:12.330Z,48.73
2018-10-11T05:10:40.998Z,52.83
2018-10-11T05:13:09.339Z,49.33
2018-10-11T05:15:38.112Z,53.40
2018-10-11T05:18:07.188Z,49.27
2018-10-11T05:20:35.537Z,50.67
2018-10-11T05:23:03.844Z,52.10
2018-10-11T05:25:32.254Z,48.57
2018-10-11T05:28:00.652Z,46.03
2018-10-11T05:30:29.040Z,46.83
2018-10-11T05:32:57.764Z,56.60
2018-10-11T05:35:26.280Z,52.73
2018-10-11T05:37:54.618Z,54.27
2018-10-11T05:40:23.112Z,53.43
2018-10-11T05:42:51.536Z,56.70
2018-10-11T05:45:23.188Z,51.43
2018-10-11T05:47:51.630Z,49.33
2018-10-11T05:50:20.090Z,52.07
2018-10-11T05:52:48.549Z,56.23
2018-10-11T05:55:17.375Z,59.60
2018-10-11T05:57:45.916Z,56.07
2018-10-11T06:00:14.440Z,57.13
2018-10-11T06:02:59.163Z,54.60
2018-10-11T06:05:27.916Z,55.30
2018-10-11T06:07:56.295Z,55.37
2018-10-11T06:10:25.362Z,58.77
2018-10-11T06:12:53.858Z,54.63
2018-10-11T06:15:22.308Z,57.97
2018-10-11T06:17:50.796Z,57.03
2018-10-11T06:20:19.055Z,57.63
2018-10-11T06:22:47.671Z,51.83
2018-10-11T06:25:16.060Z,53.97
2018-10-11T06:27:44.457Z,59.53
2018-10-11T06:30:14.074Z,54.50
2018-10-11T06:32:43.204Z,53.73
2018-10-11T06:35:12.091Z,56.07
2018-10-11T06:37:40.475Z,56.23
2018-10-11T06:40:08.908Z,56.30
2018-10-11T06:42:37.433Z,52.63
2018-10-11T06:45:07.440Z,54.80
2018-10-11T06:47:35.834Z,52.13
2018-10-11T06:50:04.695Z,50.97
2018-10-11T06:52:34.506Z,51.03
2018-10-11T06:55:03.821Z,51.57
2018-10-11T06:57:32.164Z,54.40
2018-10-11T07:00:00.516Z,49.37
2018-10-11T07:02:28.824Z,49.33
2018-10-11T07:04:57.227Z,46.20
2018-10-11T07:07:25.640Z,46.27
2018-10-11T07:09:53.934Z,46.00
2018-10-11T07:12:22.279Z,46.93
2018-10-11T07:14:50.659Z,43.37
2018-10-11T07:17:18.971Z,41.60
2018-10-11T07:19:47.334Z,44.43
2018-10-11T07:22:15.700Z,39.70
2018-10-11T07:24:44.027Z,45.97
2018-10-11T07:27:12.412Z,43.63
2018-10-11T07:29:40.700Z,40.90
2018-10-11T07:32:09.351Z,40.40
2018-10-11T07:34:37.738Z,38.90
2018-10-11T07:37:06.165Z,42.60
2018-10-11T07:39:34.483Z,40.10
2018-10-11T07:42:02.776Z,38.50
2018-10-11T07:44:31.066Z,36.50
2018-10-11T07:46:59.403Z,35.57
2018-10-11T07:49:27.697Z,34.17
2018-10-11T07:51:56.145Z,37.97
2018-10-11T07:54:29.794Z,36.67
2018-10-11T07:56:58.120Z,32.03
2018-10-11T07:59:26.430Z,34.47
2018-10-11T08:01:54.782Z,33.07
2018-10-11T08:04:23.376Z,33.90
2018-10-11T08:06:51.779Z,31.70
2018-10-11T08:09:20.104Z,35.60
2018-10-11T08:11:48.644Z,32.37
2018-10-11T08:14:17.528Z,32.77
2018-10-11T08:16:46.270Z,30.23
2018-10-11T08:19:14.589Z,33.03
2018-10-11T08:21:42.838Z,32.20
2018-10-11T08:24:11.137Z,26.37
2018-10-11T08:26:39.531Z,30.63
2018-10-11T08:29:07.944Z,29.33
2018-10-11T08:31:36.311Z,26.80
2018-10-11T08:34:04.634Z,27.53
2018-10-11T08:36:33.093Z,30.70
2018-10-11T08:39:01.448Z,28.97
2018-10-11T08:41:29.752Z,28.10
2018-10-11T08:43:58.130Z,29.63
2018-10-11T08:46:26.673Z,29.53
2018-10-11T08:48:54.961Z,28.50
2018-10-11T08:51:23.398Z,27.63
2018-10-11T08:53:52.160Z,26.90
2018-10-11T08:56:20.534Z,27.77
2018-10-11T08:58:49.478Z,26.17
2018-10-11T09:01:17.823Z,28.03
2018-10-11T09:03:46.271Z,26.30
2018-10-11T09:06:15.196Z,31.27
2018-10-11T09:08:43.506Z,27.03
2018-10-11T09:11:12.118Z,26.73
2018-10-11T09:13:40.631Z,26.13
2018-10-11T09:16:08.976Z,28.00
2018-10-11T09:18:37.396Z,28.03
2018-10-11T09:21:06.368Z,24.27
2018-10-11T09:23:34.687Z,27.10
2018-10-11T09:26:03.035Z,25.33
2018-10-11T09:28:31.372Z,25.67
2018-10-11T09:30:59.696Z,25.73
2018-10-11T09:33:28.179Z,26.07
2018-10-11T09:35:56.517Z,23.23
2018-10-11T09:38:24.972Z,24.67
2018-10-11T09:40:53.312Z,24.70
2018-10-11T09:43:21.601Z,29.97
2018-10-11T09:45:50.880Z,23.80
2018-10-11T09:48:19.203Z,24.67
2018-10-11T09:50:47.659Z,27.40
2018-10-11T09:53:16.037Z,23.77
2018-10-11T09:55:44.317Z,23.20
2018-10-11T09:58:12.667Z,23.50
2018-10-11T10:00:46.275Z,26.87
2018-10-11T10:03:14.604Z,27.27
2018-10-11T10:05:42.935Z,22.87
2018-10-11T10:08:11.230Z,25.83
2018-10-11T10:10:39.579Z,23.67
2018-10-11T10:13:07.956Z,24.73
2018-10-11T10:15:36.331Z,22.43
2018-10-11T10:18:04.580Z,20.87
2018-10-11T10:20:32.924Z,21.07
2018-10-11T10:23:01.219Z,20.87
2018-10-11T10:25:29.571Z,24.37
2018-10-11T10:27:57.844Z,21.57
2018-10-11T10:30:56.520Z,19.40
2018-10-11T10:33:25.697Z,19.17
2018-10-11T10:35:53.994Z,22.50
2018-10-11T10:38:23.245Z,19.32
2018-10-11T10:40:51.671Z,18.05
2018-10-11T10:43:20.251Z,17.82
2018-10-11T10:45:48.711Z,17.50
2018-10-11T10:48:17.131Z,17.17
2018-10-11T10:50:45.469Z,16.97
2018-10-11T10:53:13.776Z,16.67
2018-10-11T10:55:42.104Z,17.30
2018-10-11T10:58:10.411Z,16.65
2018-10-11T11:00:38.863Z,16.02
2018-10-11T11:03:07.673Z,16.93
2018-10-11T11:05:36.472Z,16.48
2018-10-11T11:08:05.082Z,17.23
2018-10-11T11:10:33.567Z,19.12
2018-10-11T11:13:01.983Z,15.78
2018-10-11T11:15:30.319Z,15.43
2018-10-11T11:18:12.573Z,16.02
2018-10-11T11:20:40.968Z,15.65
2018-10-11T11:25:45.025Z,15.70
2018-10-11T11:28:31.648Z,14.80
2018-10-11T11:31:04.096Z,14.87
2018-10-11T11:33:41.672Z,15.03
2018-10-11T11:36:12.352Z,14.80
2018-10-11T11:38:40.821Z,14.60
2018-10-11T11:41:12.688Z,14.13
2018-10-11T11:43:41.560Z,14.87
2018-10-11T11:46:24.565Z,14.87
2018-10-11T11:48:52.979Z,13.93
2018-10-11T11:51:21.557Z,16.23
2018-10-11T11:53:50.053Z,13.48
2018-10-11T11:56:18.400Z,14.35
2018-10-11T11:58:46.952Z,15.75
2018-10-11T12:01:17.872Z,14.85
2018-10-11T12:03:46.260Z,14.05
2018-10-11T12:06:24.460Z,15.85
2018-10-11T12:08:52.824Z,20.00
2018-10-11T12:11:23.141Z,13.75
2018-10-11T12:13:51.632Z,13.93
2018-10-11T12:16:20.339Z,18.15
2018-10-11T12:18:48.740Z,13.50
2018-10-11T12:21:17.100Z,16.73
2018-10-11T12:23:45.411Z,14.03
2018-10-11T12:26:13.816Z,13.65
2018-10-11T12:28:43.786Z,13.28
2018-10-11T12:31:12.094Z,14.33
2018-10-11T12:33:41.180Z,14.65
2018-10-11T12:36:10.959Z,13.70
2018-10-11T12:38:39.323Z,13.72
2018-10-11T12:41:07.840Z,14.13
2018-10-11T12:43:36.323Z,16.02
2018-10-11T12:46:05.457Z,15.48
2018-10-11T12:48:36.040Z,15.30
2018-10-11T12:51:04.353Z,15.05
2018-10-11T12:53:32.819Z,13.10
2018-10-11T12:56:01.166Z,13.80
2018-10-11T12:58:29.702Z,13.72
2018-10-11T13:00:59.203Z,13.22
2018-10-11T13:03:28.169Z,13.88
2018-10-11T13:05:57.708Z,13.50
2018-10-11T13:08:26.458Z,16.07
2018-10-11T13:10:54.819Z,16.17
2018-10-11T13:13:23.099Z,14.75
2018-10-11T13:15:51.612Z,12.73
2018-10-11T13:18:19.875Z,14.13
2018-10-11T13:20:48.254Z,12.58
2018-10-11T13:23:19.553Z,14.78
2018-10-11T13:25:44.909Z,14.90
2018-10-11T13:28:13.223Z,15.00
2018-10-11T13:30:41.785Z,13.22
2018-10-11T13:33:10.060Z,17.05
2018-10-11T13:35:38.497Z,17.20
2018-10-11T13:40:46.212Z,12.65
2018-10-11T13:43:18.542Z,13.58
2018-10-11T13:45:46.871Z,15.32
2018-10-11T13:48:17.117Z,13.25
2018-10-11T13:50:49.130Z,17.20
2018-10-11T13:53:24.799Z,18.05
2018-10-11T13:55:59.083Z,13.50
2018-10-11T13:58:31.295Z,14.15
2018-10-11T14:00:59.739Z,14.47
2018-10-11T14:03:28.052Z,18.42
2018-10-11T14:05:56.376Z,14.25
2018-10-11T14:10:59.357Z,17.27
2018-10-11T14:13:27.679Z,15.68
2018-10-11T14:15:56.015Z,15.13
2018-10-11T14:18:24.448Z,16.62
2018-10-11T14:20:52.825Z,14.25
2018-10-11T14:23:21.137Z,18.30
2018-10-11T14:25:49.452Z,13.93
2018-10-11T14:28:17.831Z,14.90
2018-10-11T14:30:46.131Z,15.67
2018-10-11T14:33:14.539Z,19.37
2018-10-11T14:35:42.875Z,15.67
2018-10-11T14:38:11.183Z,13.73
2018-10-11T14:40:39.532Z,17.00
2018-10-11T14:43:08.256Z,15.63
2018-10-11T14:45:36.595Z,17.03
2018-10-11T14:48:04.952Z,15.13
2018-10-11T14:50:33.303Z,16.53
2018-10-11T14:53:01.743Z,14.93
2018-10-11T14:55:30.105Z,15.57
2018-10-11T14:57:58.464Z,16.83
2018-10-11T15:00:26.922Z,14.67
2018-10-11T15:02:55.305Z,14.33
2018-10-11T15:05:23.683Z,17.20
2018-10-11T15:07:52.131Z,17.70
2018-10-11T15:10:20.572Z,14.50
2018-10-11T15:12:48.865Z,16.73
2018-10-11T15:15:17.212Z,17.47
2018-10-11T15:17:45.619Z,15.57
2018-10-11T15:20:13.883Z,17.70
2018-10-11T15:22:42.210Z,18.63
2018-10-11T15:25:10.531Z,17.30
2018-10-11T15:27:38.872Z,18.40
2018-10-11T15:30:07.627Z,15.00
2018-10-11T15:32:36.090Z,15.67
2018-10-11T15:35:04.544Z,18.20
2018-10-11T15:37:32.905Z,15.97
2018-10-11T15:40:01.281Z,16.57
2018-10-11T15:42:29.706Z,17.33
2018-10-11T15:44:57.968Z,17.50
2018-10-11T15:47:26.253Z,17.20
2018-10-11T15:49:54.661Z,17.20
2018-10-11T15:52:23.019Z,18.50
2018-10-11T15:54:51.311Z,17.83
2018-10-11T15:57:19.676Z,19.10
2018-10-11T15:59:48.060Z,17.83
2018-10-11T16:02:16.347Z,18.47
2018-10-11T16:04:44.657Z,19.97
2018-10-11T16:07:13.104Z,20.53
2018-10-11T16:09:41.660Z,20.03
2018-10-11T16:12:10.066Z,18.87
2018-10-11T16:14:38.431Z,20.17
2018-10-11T16:17:06.757Z,18.90
2018-10-11T16:19:35.088Z,18.03
2018-10-11T16:22:03.409Z,19.23
2018-10-11T16:24:31.719Z,19.23
2018-10-11T16:27:00.076Z,19.23
2018-10-11T16:29:28.413Z,21.33
2018-10-11T16:31:56.752Z,20.00
2018-10-11T16:34:25.106Z,20.03
2018-10-11T16:36:53.544Z,21.27
2018-10-11T16:39:21.875Z,20.33
2018-10-11T16:41:50.301Z,22.80
2018-10-11T16:44:18.648Z,23.00
2018-10-11T16:46:47.047Z,26.93
2018-10-11T16:49:15.343Z,21.03
2018-10-11T16:51:43.827Z,23.40
2018-10-11T16:54:12.356Z,24.50
2018-10-11T16:56:41.089Z,20.60
2018-10-11T16:59:09.410Z,22.83
2018-10-11T17:01:37.864Z,21.37
2018-10-11T17:04:06.548Z,22.60
2018-10-11T17:06:34.785Z,22.90
2018-10-11T17:09:03.565Z,25.17
2018-10-11T17:11:32.060Z,26.30
2018-10-11T17:14:00.379Z,24.23
2018-10-11T17:16:28.703Z,23.83
2018-10-11T17:18:57.207Z,19.90
2018-10-11T17:21:25.597Z,19.80
2018-10-11T17:23:54.859Z,23.00
2018-10-11T17:26:23.265Z,22.57
2018-10-11T17:28:51.622Z,22.90
2018-10-11T17:31:20.039Z,22.57
2018-10-11T17:33:48.375Z,23.43
2018-10-11T17:36:16.796Z,20.40
2018-10-11T17:38:45.275Z,23.53
2018-10-11T17:41:13.643Z,20.63
2018-10-11T17:43:42.003Z,21.63
2018-10-11T17:46:10.377Z,20.83
2018-10-11T17:48:38.924Z,26.67
2018-10-11T17:51:07.383Z,24.30
2018-10-11T17:53:35.851Z,22.37
2018-10-11T17:56:04.330Z,22.03
2018-10-11T17:58:32.786Z,22.87
2018-10-11T18:01:01.136Z,22.10
2018-10-11T18:03:29.523Z,20.73
2018-10-11T18:05:58.072Z,19.73
2018-10-11T18:08:26.566Z,23.30
2018-10-11T18:10:54.932Z,21.20
2018-10-11T18:13:23.275Z,21.63
2018-10-11T18:15:51.663Z,22.77
2018-10-11T18:18:20.063Z,25.70
2018-10-11T18:20:48.592Z,22.10
2018-10-11T18:23:16.924Z,22.07
2018-10-11T18:25:45.260Z,22.13
2018-10-11T18:28:13.585Z,20.13
2018-10-11T18:30:41.901Z,21.53
2018-10-11T18:33:10.196Z,25.30
2018-10-11T18:35:38.579Z,21.50
2018-10-11T18:38:06.999Z,23.17
2018-10-11T18:40:35.337Z,20.40
2018-10-11T18:43:03.934Z,23.40
2018-10-11T18:45:33.280Z,20.10
2018-10-11T18:48:01.633Z,22.33
2018-10-11T18:50:29.973Z,20.97
2018-10-11T18:52:58.368Z,20.60
2018-10-11T18:55:26.773Z,19.23
2018-10-11T18:57:55.238Z,21.40
2018-10-11T19:00:23.624Z,20.63
2018-10-11T19:02:51.927Z,22.10
2018-10-11T19:05:20.284Z,23.73
2018-10-11T19:07:48.664Z,22.33
2018-10-11T19:10:17.096Z,22.70
2018-10-11T19:12:45.458Z,20.10
2018-10-11T19:15:13.905Z,21.80
2018-10-11T19:17:42.288Z,20.20
2018-10-11T19:20:10.612Z,22.03
2018-10-11T19:22:38.979Z,22.17
2018-10-11T19:25:07.316Z,20.07
2018-10-11T19:27:35.944Z,20.10
2018-10-11T19:30:04.404Z,22.57
2018-10-11T19:32:32.823Z,20.53
2018-10-11T19:35:01.180Z,24.37
2018-10-11T19:37:29.484Z,18.53
2018-10-11T19:39:57.818Z,22.50
2018-10-11T19:42:26.173Z,22.37
2018-10-11T19:44:54.609Z,18.67
2018-10-11T19:47:23.043Z,18.23
2018-10-11T19:49:51.364Z,18.47
2018-10-11T19:52:19.759Z,19.27
2018-10-11T19:54:48.452Z,22.10
2018-10-11T19:57:16.828Z,22.87
2018-10-11T19:59:45.283Z,19.63
2018-10-11T20:02:13.738Z,31.87
2018-10-11T20:04:42.048Z,19.80
2018-10-11T20:07:10.624Z,19.50
2018-10-11T20:09:39.019Z,20.67
2018-10-11T20:12:07.360Z,18.80
2018-10-11T20:14:35.656Z,21.43
2018-10-11T20:17:04.001Z,18.80
2018-10-11T20:19:32.491Z,19.23
2018-10-11T20:22:00.996Z,19.23
2018-10-11T20:24:29.335Z,19.77
2018-10-11T20:26:57.771Z,20.77
2018-10-11T20:29:26.141Z,17.63
2018-10-11T20:31:54.476Z,18.73
2018-10-11T20:34:22.832Z,18.03
2018-10-11T20:36:51.137Z,22.70
2018-10-11T20:39:19.635Z,21.07
2018-10-11T20:41:48.008Z,20.67
2018-10-11T20:44:16.372Z,24.80
2018-10-11T20:46:44.703Z,22.33
2018-10-11T20:49:13.000Z,18.97
2018-10-11T20:51:41.467Z,20.40
2018-10-11T20:54:09.710Z,22.20
2018-10-11T20:56:37.999Z,21.67
2018-10-11T20:59:06.923Z,23.50
2018-10-11T21:01:35.220Z,20.63
2018-10-11T21:04:03.676Z,20.73
2018-10-11T21:06:31.997Z,20.70
2018-10-11T21:09:00.302Z,20.40
2018-10-11T21:11:28.635Z,20.43
2018-10-11T21:13:57.158Z,21.17
2018-10-11T21:16:25.537Z,25.87
2018-10-11T21:18:53.927Z,21.73
2018-10-11T21:21:22.319Z,21.33
2018-10-11T21:23:50.631Z,20.60
2018-10-11T21:26:18.953Z,23.63
2018-10-11T21:28:47.314Z,21.90
2018-10-11T21:31:15.667Z,23.23
2018-10-11T21:33:43.987Z,21.53
2018-10-11T21:36:12.287Z,22.10
2018-10-11T21:38:47.367Z,21.37
2018-10-11T21:41:15.708Z,22.00
2018-10-11T21:43:44.027Z,21.13
2018-10-11T21:46:12.454Z,24.30
2018-10-11T21:48:40.748Z,23.83
2018-10-11T21:51:09.031Z,25.20
2018-10-11T21:53:37.372Z,25.67
2018-10-11T21:56:05.691Z,22.97
2018-10-11T21:58:33.972Z,23.37
2018-10-11T22:01:07.684Z,20.80
2018-10-11T22:03:36.051Z,22.37
2018-10-11T22:06:04.383Z,22.10
2018-10-11T22:08:32.777Z,22.33
2018-10-11T22:11:01.044Z,24.77
2018-10-11T22:13:29.322Z,22.63
2018-10-11T22:15:57.651Z,22.43
2018-10-11T22:18:26.039Z,27.27
2018-10-11T22:20:54.566Z,24.10
2018-10-11T22:23:22.869Z,24.93
2018-10-11T22:25:51.217Z,22.33
2018-10-11T22:28:19.580Z,23.80
2018-10-11T22:30:47.991Z,22.23
2018-10-11T22:33:16.308Z,23.07
2018-10-11T22:35:44.628Z,23.17
2018-10-11T22:38:12.963Z,22.67
2018-10-11T22:40:41.383Z,24.00
2018-10-11T22:43:09.881Z,26.20
2018-10-11T22:45:38.264Z,31.13
2018-10-11T22:48:06.688Z,23.60
2018-10-11T22:50:35.113Z,22.87
2018-10-11T22:53:03.514Z,22.40
2018-10-11T22:55:32.755Z,23.53
2018-10-11T22:58:01.836Z,25.00
2018-10-11T23:00:30.192Z,25.03
2018-10-11T23:02:58.619Z,25.10
2018-10-11T23:05:26.975Z,26.10
2018-10-11T23:07:55.273Z,24.40
2018-10-11T23:10:24.387Z,26.33
2018-10-11T23:12:52.724Z,24.13
2018-10-11T23:15:21.105Z,28.17
2018-10-11T23:17:49.535Z,23.83
2018-10-11T23:20:17.879Z,23.20
2018-10-11T23:22:46.232Z,22.27
2018-10-11T23:25:14.700Z,22.23
2018-10-11T23:27:42.998Z,23.77
2018-10-11T23:30:12.354Z,22.67
2018-10-11T23:32:41.648Z,23.53
2018-10-11T23:35:10.815Z,27.47
2018-10-11T23:37:39.471Z,23.40
2018-10-11T23:40:08.471Z,26.50
2018-10-11T23:42:36.935Z,26.07
2018-10-11T23:45:05.480Z,23.03
2018-10-11T23:47:33.817Z,27.10
2018-10-11T23:50:02.114Z,25.03
2018-10-11T23:52:30.444Z,22.47
2018-10-11T23:54:58.769Z,22.67
2018-10-11T23:57:27.066Z,22.67
2018-10-11T23:59:55.360Z,24.27
